sensor_id;sensor_type;location;lat;lon;timestamp;temperature;humidity
2477;DHT22;1249;51.270;6.756;2023-07-20T00:01:40;23.20;90.60
2477;DHT22;1249;51.270;6.756;2023-07-20T00:04:10;23.30;90.80
2477;DHT22;1249;51.270;6.756;2023-07-20T00:06:35;23.30;90.70
2477;DHT22;1249;51.270;6.756;2023-07-20T00:09:01;23.20;90.80
2477;DHT22;1249;51.270;6.756;2023-07-20T00:11:27;23.30;90.90
2477;DHT22;1249;51.270;6.756;2023-07-20T00:13:53;23.30;90.90
2477;DHT22;1249;51.270;6.756;2023-07-20T00:16:18;23.20;91.00
2477;DHT22;1249;51.270;6.756;2023-07-20T00:18:44;23.20;90.90
2477;DHT22;1249;51.270;6.756;2023-07-20T00:21:10;23.20;91.10
2477;DHT22;1249;51.270;6.756;2023-07-20T00:23:35;23.20;91.10
2477;DHT22;1249;51.270;6.756;2023-07-20T00:26:01;23.20;91.10
2477;DHT22;1249;51.270;6.756;2023-07-20T00:28:27;23.20;91.10
2477;DHT22;1249;51.270;6.756;2023-07-20T00:30:53;23.20;91.10
2477;DHT22;1249;51.270;6.756;2023-07-20T00:33:18;23.20;91.10
2477;DHT22;1249;51.270;6.756;2023-07-20T00:35:44;23.20;91.20
2477;DHT22;1249;51.270;6.756;2023-07-20T00:38:10;23.20;91.20
2477;DHT22;1249;51.270;6.756;2023-07-20T00:40:40;23.20;91.30
2477;DHT22;1249;51.270;6.756;2023-07-20T00:43:07;23.20;91.40
2477;DHT22;1249;51.270;6.756;2023-07-20T00:45:33;23.10;91.40
2477;DHT22;1249;51.270;6.756;2023-07-20T00:48:00;23.10;91.50
2477;DHT22;1249;51.270;6.756;2023-07-20T00:50:26;23.10;91.50
2477;DHT22;1249;51.270;6.756;2023-07-20T00:52:54;23.10;91.60
2477;DHT22;1249;51.270;6.756;2023-07-20T00:55:19;23.10;91.60
2477;DHT22;1249;51.270;6.756;2023-07-20T00:57:45;23.10;91.60
2477;DHT22;1249;51.270;6.756;2023-07-20T01:00:11;23.10;91.70
2477;DHT22;1249;51.270;6.756;2023-07-20T01:02:37;23.10;91.80
2477;DHT22;1249;51.270;6.756;2023-07-20T01:05:04;23.10;91.70
2477;DHT22;1249;51.270;6.756;2023-07-20T01:07:35;23.10;91.70
2477;DHT22;1249;51.270;6.756;2023-07-20T01:10:16;23.10;91.80
2477;DHT22;1249;51.270;6.756;2023-07-20T01:12:45;23.10;91.90
2477;DHT22;1249;51.270;6.756;2023-07-20T01:15:12;23.10;92.00
2477;DHT22;1249;51.270;6.756;2023-07-20T01:17:38;23.00;92.00
2477;DHT22;1249;51.270;6.756;2023-07-20T01:20:04;23.00;92.00
2477;DHT22;1249;51.270;6.756;2023-07-20T01:23:17;23.00;92.10
2477;DHT22;1249;51.270;6.756;2023-07-20T01:31:25;23.00;92.40
2477;DHT22;1249;51.270;6.756;2023-07-20T01:33:54;23.00;92.50
2477;DHT22;1249;51.270;6.756;2023-07-20T01:36:22;23.00;92.50
2477;DHT22;1249;51.270;6.756;2023-07-20T01:38:48;23.00;92.50
2477;DHT22;1249;51.270;6.756;2023-07-20T01:41:15;23.00;92.50
2477;DHT22;1249;51.270;6.756;2023-07-20T01:43:42;22.90;92.50
2477;DHT22;1249;51.270;6.756;2023-07-20T01:46:08;22.90;92.60
2477;DHT22;1249;51.270;6.756;2023-07-20T01:48:33;22.90;92.60
2477;DHT22;1249;51.270;6.756;2023-07-20T01:50:59;22.90;92.70
2477;DHT22;1249;51.270;6.756;2023-07-20T01:53:24;22.90;92.70
2477;DHT22;1249;51.270;6.756;2023-07-20T01:55:56;22.80;92.60
2477;DHT22;1249;51.270;6.756;2023-07-20T01:58:21;22.80;92.60
2477;DHT22;1249;51.270;6.756;2023-07-20T02:00:47;22.80;92.80
2477;DHT22;1249;51.270;6.756;2023-07-20T02:03:12;22.80;92.90
2477;DHT22;1249;51.270;6.756;2023-07-20T02:05:38;22.80;92.90
2477;DHT22;1249;51.270;6.756;2023-07-20T02:08:04;22.80;92.90
2477;DHT22;1249;51.270;6.756;2023-07-20T02:10:30;22.80;93.00
2477;DHT22;1249;51.270;6.756;2023-07-20T02:12:58;22.70;93.00
2477;DHT22;1249;51.270;6.756;2023-07-20T02:15:23;22.70;93.20
2477;DHT22;1249;51.270;6.756;2023-07-20T02:17:49;22.70;93.30
2477;DHT22;1249;51.270;6.756;2023-07-20T02:20:15;22.70;93.40
2477;DHT22;1249;51.270;6.756;2023-07-20T02:22:40;22.60;93.40
2477;DHT22;1249;51.270;6.756;2023-07-20T02:25:07;22.60;93.50
2477;DHT22;1249;51.270;6.756;2023-07-20T02:27:33;22.60;93.60
2477;DHT22;1249;51.270;6.756;2023-07-20T02:29:59;22.60;93.70
2477;DHT22;1249;51.270;6.756;2023-07-20T02:32:25;22.60;93.80
2477;DHT22;1249;51.270;6.756;2023-07-20T02:34:51;22.50;93.90
2477;DHT22;1249;51.270;6.756;2023-07-20T02:37:16;22.50;94.00
2477;DHT22;1249;51.270;6.756;2023-07-20T02:39:42;22.50;94.00
2477;DHT22;1249;51.270;6.756;2023-07-20T02:42:08;22.50;94.00
2477;DHT22;1249;51.270;6.756;2023-07-20T02:44:33;22.50;94.10
2477;DHT22;1249;51.270;6.756;2023-07-20T02:46:59;22.50;94.00
2477;DHT22;1249;51.270;6.756;2023-07-20T02:49:24;22.50;94.10
2477;DHT22;1249;51.270;6.756;2023-07-20T02:51:50;22.50;94.20
2477;DHT22;1249;51.270;6.756;2023-07-20T02:54:16;22.50;94.10
2477;DHT22;1249;51.270;6.756;2023-07-20T02:56:41;22.50;94.20
2477;DHT22;1249;51.270;6.756;2023-07-20T02:59:07;22.50;94.30
2477;DHT22;1249;51.270;6.756;2023-07-20T03:01:33;22.50;94.40
2477;DHT22;1249;51.270;6.756;2023-07-20T03:03:59;22.40;94.30
2477;DHT22;1249;51.270;6.756;2023-07-20T03:06:24;22.40;94.40
2477;DHT22;1249;51.270;6.756;2023-07-20T03:08:50;22.40;94.50
2477;DHT22;1249;51.270;6.756;2023-07-20T03:11:18;22.40;94.50
2477;DHT22;1249;51.270;6.756;2023-07-20T03:13:44;22.40;94.60
2477;DHT22;1249;51.270;6.756;2023-07-20T03:16:13;22.40;94.60
2477;DHT22;1249;51.270;6.756;2023-07-20T03:18:44;22.40;95.00
2477;DHT22;1249;51.270;6.756;2023-07-20T03:21:10;22.40;94.70
2477;DHT22;1249;51.270;6.756;2023-07-20T03:23:39;22.40;94.70
2477;DHT22;1249;51.270;6.756;2023-07-20T03:26:05;22.40;94.80
2477;DHT22;1249;51.270;6.756;2023-07-20T03:28:37;22.40;94.80
2477;DHT22;1249;51.270;6.756;2023-07-20T03:31:06;22.40;94.70
2477;DHT22;1249;51.270;6.756;2023-07-20T03:33:32;22.40;94.80
2477;DHT22;1249;51.270;6.756;2023-07-20T03:38:34;22.40;94.80
2477;DHT22;1249;51.270;6.756;2023-07-20T03:41:00;22.40;94.90
2477;DHT22;1249;51.270;6.756;2023-07-20T03:43:27;22.40;95.30
2477;DHT22;1249;51.270;6.756;2023-07-20T03:45:53;22.30;95.60
2477;DHT22;1249;51.270;6.756;2023-07-20T03:48:21;22.30;95.90
2477;DHT22;1249;51.270;6.756;2023-07-20T03:50:48;22.30;95.40
2477;DHT22;1249;51.270;6.756;2023-07-20T03:53:15;22.30;95.10
2477;DHT22;1249;51.270;6.756;2023-07-20T03:55:51;22.30;96.50
2477;DHT22;1249;51.270;6.756;2023-07-20T03:58:18;22.40;97.50
2477;DHT22;1249;51.270;6.756;2023-07-20T04:00:48;22.40;97.60
2477;DHT22;1249;51.270;6.756;2023-07-20T04:03:15;22.50;98.00
2477;DHT22;1249;51.270;6.756;2023-07-20T04:05:41;22.50;98.00
2477;DHT22;1249;51.270;6.756;2023-07-20T04:08:07;22.40;97.20
2477;DHT22;1249;51.270;6.756;2023-07-20T04:10:33;22.40;97.20
2477;DHT22;1249;51.270;6.756;2023-07-20T04:13:00;22.40;97.20
2477;DHT22;1249;51.270;6.756;2023-07-20T04:15:25;22.40;97.30
2477;DHT22;1249;51.270;6.756;2023-07-20T04:17:51;22.40;97.20
2477;DHT22;1249;51.270;6.756;2023-07-20T04:20:16;22.40;97.20
2477;DHT22;1249;51.270;6.756;2023-07-20T04:22:43;22.40;97.10
2477;DHT22;1249;51.270;6.756;2023-07-20T04:25:09;22.40;97.10
2477;DHT22;1249;51.270;6.756;2023-07-20T04:27:35;22.50;97.00
2477;DHT22;1249;51.270;6.756;2023-07-20T04:30:01;22.40;96.90
2477;DHT22;1249;51.270;6.756;2023-07-20T04:32:27;22.40;96.90
2477;DHT22;1249;51.270;6.756;2023-07-20T04:34:53;22.50;96.90
2477;DHT22;1249;51.270;6.756;2023-07-20T04:37:19;22.50;96.70
2477;DHT22;1249;51.270;6.756;2023-07-20T04:39:45;22.50;96.70
2477;DHT22;1249;51.270;6.756;2023-07-20T04:42:11;22.50;96.80
2477;DHT22;1249;51.270;6.756;2023-07-20T04:44:36;22.50;96.50
2477;DHT22;1249;51.270;6.756;2023-07-20T04:47:02;22.50;96.50
2477;DHT22;1249;51.270;6.756;2023-07-20T04:49:28;22.50;96.20
2477;DHT22;1249;51.270;6.756;2023-07-20T04:51:54;22.50;96.20
2477;DHT22;1249;51.270;6.756;2023-07-20T04:54:19;22.50;96.30
2477;DHT22;1249;51.270;6.756;2023-07-20T04:56:45;22.50;96.30
2477;DHT22;1249;51.270;6.756;2023-07-20T04:59:11;22.50;96.20
2477;DHT22;1249;51.270;6.756;2023-07-20T05:01:36;22.50;96.20
2477;DHT22;1249;51.270;6.756;2023-07-20T05:04:02;22.50;96.20
2477;DHT22;1249;51.270;6.756;2023-07-20T05:06:28;22.60;96.00
2477;DHT22;1249;51.270;6.756;2023-07-20T05:08:54;22.50;96.20
2477;DHT22;1249;51.270;6.756;2023-07-20T05:11:19;22.50;95.90
2477;DHT22;1249;51.270;6.756;2023-07-20T05:13:45;22.50;95.80
2477;DHT22;1249;51.270;6.756;2023-07-20T05:16:11;22.50;95.90
2477;DHT22;1249;51.270;6.756;2023-07-20T05:18:36;22.40;95.70
2477;DHT22;1249;51.270;6.756;2023-07-20T05:21:02;22.40;95.80
2477;DHT22;1249;51.270;6.756;2023-07-20T05:23:27;22.40;96.30
2477;DHT22;1249;51.270;6.756;2023-07-20T05:25:58;22.50;96.40
2477;DHT22;1249;51.270;6.756;2023-07-20T05:28:24;22.60;96.60
2477;DHT22;1249;51.270;6.756;2023-07-20T05:30:50;22.70;97.20
2477;DHT22;1249;51.270;6.756;2023-07-20T05:33:17;22.80;97.00
2477;DHT22;1249;51.270;6.756;2023-07-20T05:35:43;22.80;96.90
2477;DHT22;1249;51.270;6.756;2023-07-20T05:38:08;22.80;97.10
2477;DHT22;1249;51.270;6.756;2023-07-20T05:40:39;22.80;97.70
2477;DHT22;1249;51.270;6.756;2023-07-20T05:43:05;22.80;97.90
2477;DHT22;1249;51.270;6.756;2023-07-20T05:45:31;22.80;98.00
2477;DHT22;1249;51.270;6.756;2023-07-20T05:47:57;22.80;98.10
2477;DHT22;1249;51.270;6.756;2023-07-20T05:50:22;22.80;98.10
2477;DHT22;1249;51.270;6.756;2023-07-20T05:52:48;22.80;97.90
2477;DHT22;1249;51.270;6.756;2023-07-20T05:55:13;22.90;98.00
2477;DHT22;1249;51.270;6.756;2023-07-20T05:57:39;22.90;98.40
2477;DHT22;1249;51.270;6.756;2023-07-20T06:00:09;23.00;98.40
2477;DHT22;1249;51.270;6.756;2023-07-20T06:02:35;23.00;97.60
2477;DHT22;1249;51.270;6.756;2023-07-20T06:05:00;23.10;97.50
2477;DHT22;1249;51.270;6.756;2023-07-20T06:07:26;23.20;97.00
2477;DHT22;1249;51.270;6.756;2023-07-20T06:09:52;23.20;96.50
2477;DHT22;1249;51.270;6.756;2023-07-20T06:12:17;23.30;95.90
2477;DHT22;1249;51.270;6.756;2023-07-20T06:14:43;23.30;95.50
2477;DHT22;1249;51.270;6.756;2023-07-20T06:17:08;23.40;95.10
2477;DHT22;1249;51.270;6.756;2023-07-20T06:19:35;23.40;95.00
2477;DHT22;1249;51.270;6.756;2023-07-20T06:22:01;23.20;93.20
2477;DHT22;1249;51.270;6.756;2023-07-20T06:24:26;23.50;91.80
2477;DHT22;1249;51.270;6.756;2023-07-20T06:26:52;23.60;90.60
2477;DHT22;1249;51.270;6.756;2023-07-20T06:29:17;23.40;90.20
2477;DHT22;1249;51.270;6.756;2023-07-20T06:31:43;23.10;90.80
2477;DHT22;1249;51.270;6.756;2023-07-20T06:34:08;22.90;91.00
2477;DHT22;1249;51.270;6.756;2023-07-20T06:36:34;22.80;91.40
2477;DHT22;1249;51.270;6.756;2023-07-20T06:39:00;22.70;91.60
2477;DHT22;1249;51.270;6.756;2023-07-20T06:41:26;22.70;91.90
2477;DHT22;1249;51.270;6.756;2023-07-20T06:43:51;22.70;92.00
2477;DHT22;1249;51.270;6.756;2023-07-20T06:46:17;22.70;92.20
2477;DHT22;1249;51.270;6.756;2023-07-20T06:48:43;22.70;91.90
2477;DHT22;1249;51.270;6.756;2023-07-20T06:51:10;23.20;91.70
2477;DHT22;1249;51.270;6.756;2023-07-20T06:53:35;23.90;90.20
2477;DHT22;1249;51.270;6.756;2023-07-20T06:56:01;24.40;87.80
2477;DHT22;1249;51.270;6.756;2023-07-20T06:58:26;24.90;86.10
2477;DHT22;1249;51.270;6.756;2023-07-20T07:00:52;25.10;83.30
2477;DHT22;1249;51.270;6.756;2023-07-20T07:03:18;25.50;82.70
2477;DHT22;1249;51.270;6.756;2023-07-20T07:05:44;25.90;80.80
2477;DHT22;1249;51.270;6.756;2023-07-20T07:08:11;26.20;79.10
2477;DHT22;1249;51.270;6.756;2023-07-20T07:10:37;26.60;78.00
2477;DHT22;1249;51.270;6.756;2023-07-20T07:13:03;26.80;76.70
2477;DHT22;1249;51.270;6.756;2023-07-20T07:15:29;26.30;75.60
2477;DHT22;1249;51.270;6.756;2023-07-20T07:17:55;26.30;77.50
2477;DHT22;1249;51.270;6.756;2023-07-20T07:20:23;26.30;76.60
2477;DHT22;1249;51.270;6.756;2023-07-20T07:22:53;26.20;76.40
2477;DHT22;1249;51.270;6.756;2023-07-20T07:25:23;25.80;76.50
2477;DHT22;1249;51.270;6.756;2023-07-20T07:27:49;25.40;77.30
2477;DHT22;1249;51.270;6.756;2023-07-20T07:30:16;25.10;78.30
2477;DHT22;1249;51.270;6.756;2023-07-20T07:32:42;24.90;79.50
2477;DHT22;1249;51.270;6.756;2023-07-20T07:35:08;25.40;81.90
2477;DHT22;1249;51.270;6.756;2023-07-20T07:37:33;26.20;81.10
2477;DHT22;1249;51.270;6.756;2023-07-20T07:39:59;26.80;79.10
2477;DHT22;1249;51.270;6.756;2023-07-20T07:42:24;27.30;77.10
2477;DHT22;1249;51.270;6.756;2023-07-20T07:44:50;27.70;76.00
2477;DHT22;1249;51.270;6.756;2023-07-20T07:47:15;28.00;75.00
2477;DHT22;1249;51.270;6.756;2023-07-20T07:49:41;28.40;73.80
2477;DHT22;1249;51.270;6.756;2023-07-20T07:52:07;28.80;72.90
2477;DHT22;1249;51.270;6.756;2023-07-20T07:54:32;29.30;71.40
2477;DHT22;1249;51.270;6.756;2023-07-20T07:56:58;29.70;69.70
2477;DHT22;1249;51.270;6.756;2023-07-20T07:59:23;29.80;67.80
2477;DHT22;1249;51.270;6.756;2023-07-20T08:01:49;29.30;66.50
2477;DHT22;1249;51.270;6.756;2023-07-20T08:04:15;28.80;66.80
2477;DHT22;1249;51.270;6.756;2023-07-20T08:06:40;28.20;67.90
2477;DHT22;1249;51.270;6.756;2023-07-20T08:09:06;27.90;69.50
2477;DHT22;1249;51.270;6.756;2023-07-20T08:11:32;28.20;72.20
2477;DHT22;1249;51.270;6.756;2023-07-20T08:14:00;28.70;71.10
2477;DHT22;1249;51.270;6.756;2023-07-20T08:16:26;29.00;70.00
2477;DHT22;1249;51.270;6.756;2023-07-20T08:18:51;29.50;68.40
2477;DHT22;1249;51.270;6.756;2023-07-20T08:21:17;29.60;66.90
2477;DHT22;1249;51.270;6.756;2023-07-20T08:23:43;29.10;65.70
2477;DHT22;1249;51.270;6.756;2023-07-20T08:26:08;28.60;66.70
2477;DHT22;1249;51.270;6.756;2023-07-20T08:28:34;28.00;68.20
2477;DHT22;1249;51.270;6.756;2023-07-20T08:31:00;28.10;70.80
2477;DHT22;1249;51.270;6.756;2023-07-20T08:33:25;28.60;72.40
2477;DHT22;1249;51.270;6.756;2023-07-20T08:35:54;29.30;69.90
2477;DHT22;1249;51.270;6.756;2023-07-20T08:38:20;29.80;68.40
2477;DHT22;1249;51.270;6.756;2023-07-20T08:40:46;30.30;66.90
2477;DHT22;1249;51.270;6.756;2023-07-20T08:43:12;30.60;64.80
2477;DHT22;1249;51.270;6.756;2023-07-20T08:45:40;30.90;63.80
2477;DHT22;1249;51.270;6.756;2023-07-20T08:48:07;31.30;62.90
2477;DHT22;1249;51.270;6.756;2023-07-20T08:50:34;31.70;61.90
2477;DHT22;1249;51.270;6.756;2023-07-20T08:53:00;31.90;60.80
2477;DHT22;1249;51.270;6.756;2023-07-20T08:55:27;32.20;59.90
2477;DHT22;1249;51.270;6.756;2023-07-20T08:57:56;32.60;59.20
2477;DHT22;1249;51.270;6.756;2023-07-20T09:00:23;32.90;58.70
2477;DHT22;1249;51.270;6.756;2023-07-20T09:02:51;33.40;57.80
2477;DHT22;1249;51.270;6.756;2023-07-20T09:05:17;33.90;57.00
2477;DHT22;1249;51.270;6.756;2023-07-20T09:07:43;34.00;55.80
2477;DHT22;1249;51.270;6.756;2023-07-20T09:10:09;34.00;55.00
2477;DHT22;1249;51.270;6.756;2023-07-20T09:12:37;33.30;54.60
2477;DHT22;1249;51.270;6.756;2023-07-20T09:15:04;32.90;55.30
2477;DHT22;1249;51.270;6.756;2023-07-20T09:17:30;32.50;55.10
2477;DHT22;1249;51.270;6.756;2023-07-20T09:19:55;31.90;55.20
2477;DHT22;1249;51.270;6.756;2023-07-20T09:22:21;31.30;56.00
2477;DHT22;1249;51.270;6.756;2023-07-20T09:24:46;30.90;57.20
2477;DHT22;1249;51.270;6.756;2023-07-20T09:27:12;31.40;59.10
2477;DHT22;1249;51.270;6.756;2023-07-20T09:29:51;32.00;58.00
2477;DHT22;1249;51.270;6.756;2023-07-20T09:32:21;32.80;57.10
2477;DHT22;1249;51.270;6.756;2023-07-20T09:34:47;33.00;55.10
2477;DHT22;1249;51.270;6.756;2023-07-20T09:37:13;33.40;55.80
2477;DHT22;1249;51.270;6.756;2023-07-20T09:39:45;34.00;54.50
2477;DHT22;1249;51.270;6.756;2023-07-20T09:42:12;33.70;52.80
2477;DHT22;1249;51.270;6.756;2023-07-20T09:44:39;33.40;53.40
2477;DHT22;1249;51.270;6.756;2023-07-20T09:47:05;33.30;53.50
2477;DHT22;1249;51.270;6.756;2023-07-20T09:49:30;33.40;54.40
2477;DHT22;1249;51.270;6.756;2023-07-20T09:51:58;33.70;54.20
2477;DHT22;1249;51.270;6.756;2023-07-20T09:54:26;34.20;53.60
2477;DHT22;1249;51.270;6.756;2023-07-20T09:56:54;34.70;52.00
2477;DHT22;1249;51.270;6.756;2023-07-20T09:59:19;35.10;50.80
2477;DHT22;1249;51.270;6.756;2023-07-20T10:01:46;35.30;49.20
2477;DHT22;1249;51.270;6.756;2023-07-20T10:04:13;35.70;49.00
2477;DHT22;1249;51.270;6.756;2023-07-20T10:06:42;35.40;47.20
2477;DHT22;1249;51.270;6.756;2023-07-20T10:09:10;34.60;47.70
2477;DHT22;1249;51.270;6.756;2023-07-20T10:11:36;34.50;49.90
2477;DHT22;1249;51.270;6.756;2023-07-20T10:14:04;35.00;49.60
2477;DHT22;1249;51.270;6.756;2023-07-20T10:16:39;35.50;48.50
2477;DHT22;1249;51.270;6.756;2023-07-20T10:19:23;36.10;47.50
2477;DHT22;1249;51.270;6.756;2023-07-20T10:22:03;36.60;46.50
2477;DHT22;1249;51.270;6.756;2023-07-20T10:24:33;36.80;45.40
2477;DHT22;1249;51.270;6.756;2023-07-20T10:27:00;36.30;44.80
2477;DHT22;1249;51.270;6.756;2023-07-20T10:29:26;35.40;45.20
2477;DHT22;1249;51.270;6.756;2023-07-20T10:31:54;34.60;46.20
2477;DHT22;1249;51.270;6.756;2023-07-20T10:34:20;34.60;48.20
2477;DHT22;1249;51.270;6.756;2023-07-20T10:36:46;35.10;48.20
2477;DHT22;1249;51.270;6.756;2023-07-20T10:39:34;35.70;47.20
2477;DHT22;1249;51.270;6.756;2023-07-20T10:42:10;36.40;46.60
2477;DHT22;1249;51.270;6.756;2023-07-20T10:44:41;37.00;46.20
2477;DHT22;1249;51.270;6.756;2023-07-20T10:47:12;37.70;44.80
2477;DHT22;1249;51.270;6.756;2023-07-20T10:50:00;38.30;43.80
2477;DHT22;1249;51.270;6.756;2023-07-20T10:52:26;38.70;42.90
2477;DHT22;1249;51.270;6.756;2023-07-20T10:55:10;39.10;41.30
2477;DHT22;1249;51.270;6.756;2023-07-20T10:57:37;38.30;40.90
2477;DHT22;1249;51.270;6.756;2023-07-20T11:00:13;37.60;40.90
2477;DHT22;1249;51.270;6.756;2023-07-20T11:02:52;36.50;41.40
2477;DHT22;1249;51.270;6.756;2023-07-20T11:05:40;35.60;42.50
2477;DHT22;1249;51.270;6.756;2023-07-20T11:08:41;34.70;43.80
2477;DHT22;1249;51.270;6.756;2023-07-20T11:11:26;34.50;47.10
2477;DHT22;1249;51.270;6.756;2023-07-20T11:16:35;36.60;45.20
2477;DHT22;1249;51.270;6.756;2023-07-20T11:19:01;37.40;43.30
2477;DHT22;1249;51.270;6.756;2023-07-20T11:21:28;38.30;42.50
2477;DHT22;1249;51.270;6.756;2023-07-20T11:23:53;39.20;41.60
2477;DHT22;1249;51.270;6.756;2023-07-20T11:26:19;39.70;40.70
2477;DHT22;1249;51.270;6.756;2023-07-20T11:28:49;39.20;39.10
2477;DHT22;1249;51.270;6.756;2023-07-20T11:31:15;38.20;39.50
2477;DHT22;1249;51.270;6.756;2023-07-20T11:33:43;37.70;40.80
2477;DHT22;1249;51.270;6.756;2023-07-20T11:36:09;37.70;41.50
2477;DHT22;1249;51.270;6.756;2023-07-20T11:38:35;37.70;42.30
2477;DHT22;1249;51.270;6.756;2023-07-20T11:41:03;38.20;41.20
2477;DHT22;1249;51.270;6.756;2023-07-20T11:43:29;38.50;41.60
2477;DHT22;1249;51.270;6.756;2023-07-20T11:45:55;38.30;39.90
2477;DHT22;1249;51.270;6.756;2023-07-20T11:48:21;37.60;40.90
2477;DHT22;1249;51.270;6.756;2023-07-20T11:50:47;37.10;42.60
2477;DHT22;1249;51.270;6.756;2023-07-20T11:53:13;37.20;42.00
2477;DHT22;1249;51.270;6.756;2023-07-20T11:55:40;36.70;41.00
2477;DHT22;1249;51.270;6.756;2023-07-20T11:58:07;36.00;41.30
2477;DHT22;1249;51.270;6.756;2023-07-20T12:00:34;35.20;42.30
2477;DHT22;1249;51.270;6.756;2023-07-20T12:03:00;34.50;43.20
2477;DHT22;1249;51.270;6.756;2023-07-20T12:05:26;33.90;44.10
2477;DHT22;1249;51.270;6.756;2023-07-20T12:07:52;33.40;45.00
2477;DHT22;1249;51.270;6.756;2023-07-20T12:10:25;33.10;45.50
2477;DHT22;1249;51.270;6.756;2023-07-20T12:12:51;32.70;46.20
2477;DHT22;1249;51.270;6.756;2023-07-20T12:15:20;32.30;46.70
2477;DHT22;1249;51.270;6.756;2023-07-20T12:17:49;31.90;47.60
2477;DHT22;1249;51.270;6.756;2023-07-20T12:20:32;31.70;48.10
2477;DHT22;1249;51.270;6.756;2023-07-20T12:23:03;31.60;48.80
2477;DHT22;1249;51.270;6.756;2023-07-20T12:25:48;31.90;50.10
2477;DHT22;1249;51.270;6.756;2023-07-20T12:28:16;31.90;48.80
2477;DHT22;1249;51.270;6.756;2023-07-20T12:30:43;31.70;48.80
2477;DHT22;1249;51.270;6.756;2023-07-20T12:33:13;31.50;49.10
2477;DHT22;1249;51.270;6.756;2023-07-20T12:35:42;31.30;49.60
2477;DHT22;1249;51.270;6.756;2023-07-20T12:38:11;31.10;49.70
2477;DHT22;1249;51.270;6.756;2023-07-20T12:40:36;31.00;50.00
2477;DHT22;1249;51.270;6.756;2023-07-20T12:43:02;30.90;49.80
2477;DHT22;1249;51.270;6.756;2023-07-20T12:45:29;31.60;51.70
2477;DHT22;1249;51.270;6.756;2023-07-20T12:47:54;32.10;48.20
2477;DHT22;1249;51.270;6.756;2023-07-20T12:50:20;32.10;48.20
2477;DHT22;1249;51.270;6.756;2023-07-20T12:52:45;32.40;47.30
2477;DHT22;1249;51.270;6.756;2023-07-20T12:55:11;32.30;47.00
2477;DHT22;1249;51.270;6.756;2023-07-20T12:57:37;31.90;47.10
2477;DHT22;1249;51.270;6.756;2023-07-20T13:00:04;31.60;47.50
2477;DHT22;1249;51.270;6.756;2023-07-20T13:02:32;31.40;48.00
2477;DHT22;1249;51.270;6.756;2023-07-20T13:04:58;31.10;48.50
2477;DHT22;1249;51.270;6.756;2023-07-20T13:07:34;30.90;48.90
2477;DHT22;1249;51.270;6.756;2023-07-20T13:10:01;30.60;49.40
2477;DHT22;1249;51.270;6.756;2023-07-20T13:12:28;30.40;49.60
2477;DHT22;1249;51.270;6.756;2023-07-20T13:14:55;30.20;50.00
2477;DHT22;1249;51.270;6.756;2023-07-20T13:17:21;30.20;50.80
2477;DHT22;1249;51.270;6.756;2023-07-20T13:19:47;30.20;50.50
2477;DHT22;1249;51.270;6.756;2023-07-20T13:22:12;30.20;50.40
2477;DHT22;1249;51.270;6.756;2023-07-20T13:24:40;30.20;50.50
2477;DHT22;1249;51.270;6.756;2023-07-20T13:27:06;30.20;50.40
2477;DHT22;1249;51.270;6.756;2023-07-20T13:29:31;30.20;50.10
2477;DHT22;1249;51.270;6.756;2023-07-20T13:31:58;30.00;49.80
2477;DHT22;1249;51.270;6.756;2023-07-20T13:34:25;29.90;50.00
2477;DHT22;1249;51.270;6.756;2023-07-20T13:36:50;29.70;50.00
2477;DHT22;1249;51.270;6.756;2023-07-20T13:39:16;29.70;50.50
2477;DHT22;1249;51.270;6.756;2023-07-20T13:41:42;29.60;50.40
2477;DHT22;1249;51.270;6.756;2023-07-20T13:44:07;30.20;52.70
2477;DHT22;1249;51.270;6.756;2023-07-20T13:46:33;31.70;50.70
2477;DHT22;1249;51.270;6.756;2023-07-20T13:48:59;32.10;47.50
2477;DHT22;1249;51.270;6.756;2023-07-20T13:51:25;32.10;47.00
2477;DHT22;1249;51.270;6.756;2023-07-20T13:53:51;31.90;47.10
2477;DHT22;1249;51.270;6.756;2023-07-20T13:56:17;31.80;47.00
2477;DHT22;1249;51.270;6.756;2023-07-20T13:58:42;31.50;47.20
2477;DHT22;1249;51.270;6.756;2023-07-20T14:01:08;31.20;47.70
2477;DHT22;1249;51.270;6.756;2023-07-20T14:03:33;31.00;48.20
2477;DHT22;1249;51.270;6.756;2023-07-20T14:05:59;30.70;48.60
2477;DHT22;1249;51.270;6.756;2023-07-20T14:08:24;30.40;49.00
2477;DHT22;1249;51.270;6.756;2023-07-20T14:10:50;30.40;49.40
2477;DHT22;1249;51.270;6.756;2023-07-20T14:13:15;30.20;49.50
2477;DHT22;1249;51.270;6.756;2023-07-20T14:15:41;30.00;49.70
2477;DHT22;1249;51.270;6.756;2023-07-20T14:18:07;30.00;50.00
2477;DHT22;1249;51.270;6.756;2023-07-20T14:20:32;29.90;50.40
2477;DHT22;1249;51.270;6.756;2023-07-20T14:22:58;30.00;50.50
2477;DHT22;1249;51.270;6.756;2023-07-20T14:25:23;30.10;50.30
2477;DHT22;1249;51.270;6.756;2023-07-20T14:27:49;30.20;50.30
2477;DHT22;1249;51.270;6.756;2023-07-20T14:30:15;30.60;50.80
2477;DHT22;1249;51.270;6.756;2023-07-20T14:32:41;31.40;50.00
2477;DHT22;1249;51.270;6.756;2023-07-20T14:35:07;32.10;47.40
2477;DHT22;1249;51.270;6.756;2023-07-20T14:37:32;32.60;46.50
2477;DHT22;1249;51.270;6.756;2023-07-20T14:39:59;33.10;46.10
2477;DHT22;1249;51.270;6.756;2023-07-20T14:42:24;33.40;45.50
2477;DHT22;1249;51.270;6.756;2023-07-20T14:44:50;33.60;44.90
2477;DHT22;1249;51.270;6.756;2023-07-20T14:47:15;33.80;45.00
2477;DHT22;1249;51.270;6.756;2023-07-20T14:49:41;34.40;45.00
2477;DHT22;1249;51.270;6.756;2023-07-20T14:52:07;34.50;43.80
2477;DHT22;1249;51.270;6.756;2023-07-20T14:54:35;34.40;43.60
2477;DHT22;1249;51.270;6.756;2023-07-20T14:57:01;34.50;43.70
2477;DHT22;1249;51.270;6.756;2023-07-20T14:59:28;34.30;43.50
2477;DHT22;1249;51.270;6.756;2023-07-20T15:01:53;34.00;43.80
2477;DHT22;1249;51.270;6.756;2023-07-20T15:04:19;33.70;44.30
2477;DHT22;1249;51.270;6.756;2023-07-20T15:06:44;33.40;44.70
2477;DHT22;1249;51.270;6.756;2023-07-20T15:09:10;33.70;45.40
2477;DHT22;1249;51.270;6.756;2023-07-20T15:11:36;33.90;44.20
2477;DHT22;1249;51.270;6.756;2023-07-20T15:14:01;33.70;43.80
2477;DHT22;1249;51.270;6.756;2023-07-20T15:16:27;33.40;44.20
2477;DHT22;1249;51.270;6.756;2023-07-20T15:18:53;33.00;44.70
2477;DHT22;1249;51.270;6.756;2023-07-20T15:21:18;33.00;46.40
2477;DHT22;1249;51.270;6.756;2023-07-20T15:23:44;33.20;46.20
2477;DHT22;1249;51.270;6.756;2023-07-20T15:26:10;33.80;45.00
2477;DHT22;1249;51.270;6.756;2023-07-20T15:28:39;34.50;44.20
2477;DHT22;1249;51.270;6.756;2023-07-20T15:31:05;35.10;43.30
2477;DHT22;1249;51.270;6.756;2023-07-20T15:33:31;35.60;42.30
2477;DHT22;1249;51.270;6.756;2023-07-20T15:38:24;36.40;41.50
2477;DHT22;1249;51.270;6.756;2023-07-20T15:40:50;36.70;41.20
2477;DHT22;1249;51.270;6.756;2023-07-20T15:43:16;36.90;40.60
2477;DHT22;1249;51.270;6.756;2023-07-20T15:45:46;37.00;40.50
2477;DHT22;1249;51.270;6.756;2023-07-20T15:48:14;37.00;40.50
2477;DHT22;1249;51.270;6.756;2023-07-20T15:50:40;36.80;40.00
2477;DHT22;1249;51.270;6.756;2023-07-20T15:53:05;36.70;40.00
2477;DHT22;1249;51.270;6.756;2023-07-20T15:55:31;36.30;39.90
2477;DHT22;1249;51.270;6.756;2023-07-20T15:57:56;35.70;40.20
2477;DHT22;1249;51.270;6.756;2023-07-20T16:00:22;35.00;40.90
2477;DHT22;1249;51.270;6.756;2023-07-20T16:02:47;34.30;41.70
2477;DHT22;1249;51.270;6.756;2023-07-20T16:05:13;33.70;42.40
2477;DHT22;1249;51.270;6.756;2023-07-20T16:07:38;33.10;43.20
2477;DHT22;1249;51.270;6.756;2023-07-20T16:10:04;33.10;44.50
2477;DHT22;1249;51.270;6.756;2023-07-20T16:12:33;33.40;44.40
2477;DHT22;1249;51.270;6.756;2023-07-20T16:14:59;33.70;43.90